Time;durP1;ratioP1;P1;durP2;ratioP2;P2;SDS_P1;SDS_P2;PMS_P1;PMS_P2;Temp;Humidity;BMP_temperature;BMP_pressure;BME280_temperature;BME280_humidity;BME280_pressure;Samples;Min_cycle;Max_cycle;Signal;HPM_P1;HPM_P2
2022/12/05 00:01:34;;;;;;;48.15;29.30;;;;;;;1.70;100.00;101698.47;5034404;28;20034;-50
2022/12/05 00:04:04;;;;;;;46.08;27.52;;;;;;;1.69;100.00;101707.22;5034369;28;20021;-50
2022/12/05 00:06:30;;;;;;;47.50;28.52;;;;;;;1.70;100.00;101702.84;5040736;28;20025;-52
2022/12/05 00:08:56;;;;;;;52.03;30.67;;;;;;;1.71;100.00;101709.81;5037262;28;20539;-52
2022/12/05 00:11:28;;;;;;;50.50;29.30;;;;;;;1.70;100.00;101711.56;5030289;28;20046;-51
2022/12/05 00:13:54;;;;;;;51.05;30.55;;;;;;;1.72;100.00;101711.53;5033909;28;20017;-50
2022/12/05 00:16:22;;;;;;;49.17;29.67;;;;;;;1.69;100.00;101709.84;5035118;28;20026;-50
2022/12/05 00:18:48;;;;;;;51.47;30.30;;;;;;;1.70;100.00;101714.19;5035544;28;20038;-50
2022/12/05 00:21:24;;;;;;;47.45;29.83;;;;;;;1.71;100.00;101717.66;5034371;28;20030;-49
2022/12/05 00:23:51;;;;;;;50.78;31.40;;;;;;;1.72;100.00;101716.78;5031775;28;20036;-50
2022/12/05 00:26:17;;;;;;;56.55;32.22;;;;;;;1.73;100.00;101724.56;5043223;28;20053;-49
2022/12/05 00:28:43;;;;;;;49.63;31.20;;;;;;;1.71;100.00;101715.88;5032890;28;20018;-50
2022/12/05 00:31:12;;;;;;;52.70;30.85;;;;;;;1.72;100.00;101719.41;5034352;28;20379;-49
2022/12/05 00:33:37;;;;;;;51.30;32.28;;;;;;;1.71;100.00;101705.41;5033375;28;20041;-51
2022/12/05 00:36:24;;;;;;;47.03;30.83;;;;;;;1.74;100.00;101710.56;5034066;28;20024;-53
2022/12/05 00:38:50;;;;;;;51.30;31.75;;;;;;;1.72;100.00;101704.53;5033621;28;20104;-53
2022/12/05 00:41:23;;;;;;;54.38;32.13;;;;;;;1.71;100.00;101701.94;5034013;28;20037;-49
2022/12/05 00:43:50;;;;;;;52.35;32.35;;;;;;;1.71;100.00;101696.72;5033437;28;20033;-52
2022/12/05 00:46:19;;;;;;;52.58;31.65;;;;;;;1.73;100.00;101702.75;5033668;28;20033;-50
2022/12/05 00:48:45;;;;;;;52.92;31.73;;;;;;;1.74;100.00;101696.63;5038039;28;20034;-52
2022/12/05 00:51:16;;;;;;;52.25;32.50;;;;;;;1.73;100.00;101695.75;5031955;28;20029;-50
2022/12/05 00:53:42;;;;;;;57.47;32.13;;;;;;;1.75;100.00;101693.97;5033852;28;20037;-54
2022/12/05 00:56:12;;;;;;;50.58;31.88;;;;;;;1.76;100.00;101708.78;5033458;28;20029;-49
2022/12/05 00:58:38;;;;;;;54.78;31.88;;;;;;;1.77;100.00;101696.56;5034453;28;20037;-50
2022/12/05 01:01:11;;;;;;;53.28;32.20;;;;;;;1.77;100.00;101696.56;5037514;28;20476;-52
2022/12/05 01:03:37;;;;;;;53.47;33.40;;;;;;;1.78;100.00;101700.88;5035715;28;20502;-51
2022/12/05 01:06:04;;;;;;;51.17;31.75;;;;;;;1.79;100.00;101700.00;5036946;28;20024;-51
2022/12/05 01:08:31;;;;;;;49.90;31.55;;;;;;;1.79;100.00;101700.84;5037338;28;20026;-52
2022/12/05 01:10:57;;;;;;;54.45;33.22;;;;;;;1.80;100.00;101705.19;5036284;28;20033;-49
2022/12/05 01:13:23;;;;;;;51.97;32.33;;;;;;;1.82;100.00;101718.25;5037301;28;20152;-48
2022/12/05 01:15:48;;;;;;;49.85;31.80;;;;;;;1.82;100.00;101707.78;5028552;28;20033;-49
2022/12/05 01:18:14;;;;;;;54.92;33.92;;;;;;;1.82;100.00;101707.78;5036627;28;20025;-49
2022/12/05 01:20:40;;;;;;;51.80;33.53;;;;;;;1.83;100.00;101709.47;5035954;28;20037;-47
2022/12/05 01:23:06;;;;;;;54.13;34.78;;;;;;;1.85;100.00;101710.31;5026933;28;20026;-49
2022/12/05 01:25:31;;;;;;;53.50;33.28;;;;;;;1.85;100.00;101721.66;5036377;28;20451;-51
2022/12/05 01:27:57;;;;;;;54.67;33.55;;;;;;;1.85;100.00;101716.41;5035919;28;20054;-48
2022/12/05 01:30:22;;;;;;;53.03;32.10;;;;;;;1.87;100.00;101715.53;5036000;28;20064;-48
2022/12/05 01:32:47;;;;;;;50.95;32.78;;;;;;;1.85;100.00;101720.78;5036184;28;20029;-49
2022/12/05 01:35:13;;;;;;;55.17;33.72;;;;;;;1.85;100.00;101715.56;5036307;28;20482;-50
2022/12/05 01:37:38;;;;;;;52.33;32.30;;;;;;;1.86;100.00;101714.63;5035526;28;20040;-49
2022/12/05 01:40:04;;;;;;;51.20;33.17;;;;;;;1.85;100.00;101721.66;5043295;28;20052;-49
2022/12/05 01:42:30;;;;;;;52.15;32.08;;;;;;;1.88;100.00;101727.69;5036189;28;20540;-49
2022/12/05 01:45:02;;;;;;;56.30;34.63;;;;;;;1.87;100.00;101726.84;5036143;28;20098;-49
2022/12/05 01:47:30;;;;;;;58.50;34.17;;;;;;;1.85;100.00;101724.25;5029304;28;20037;-48
2022/12/05 01:49:56;;;;;;;55.08;33.92;;;;;;;1.88;100.00;101731.16;5036831;28;20021;-49
2022/12/05 01:52:25;;;;;;;52.35;32.42;;;;;;;1.89;100.00;101734.66;5040341;28;20032;-49
2022/12/05 01:54:55;;;;;;;49.83;32.13;;;;;;;1.90;100.00;101737.25;5035051;28;20079;-49
2022/12/05 01:57:22;;;;;;;51.63;31.77;;;;;;;1.91;100.00;101741.56;5044705;28;20475;-48
2022/12/05 01:59:52;;;;;;;52.47;33.90;;;;;;;1.91;100.00;101738.09;5035742;28;20399;-49
2022/12/05 02:02:18;;;;;;;52.30;33.22;;;;;;;1.92;100.00;101743.31;5035133;28;20471;-49
2022/12/05 02:04:59;;;;;;;48.60;31.70;;;;;;;1.93;100.00;101737.19;5035541;28;20040;-48
2022/12/05 02:07:24;;;;;;;50.90;33.38;;;;;;;1.93;100.00;101742.41;5035047;28;20369;-48
2022/12/05 02:09:50;;;;;;;55.38;32.00;;;;;;;1.93;100.00;101742.41;5035817;28;20033;-51
2022/12/05 02:12:18;;;;;;;53.45;31.58;;;;;;;1.94;100.00;101745.88;5035162;28;20498;-49
2022/12/05 02:15:07;;;;;;;50.20;32.42;;;;;;;1.96;100.00;101744.06;5035719;28;20087;-48
2022/12/05 02:17:35;;;;;;;53.45;33.50;;;;;;;1.97;100.00;101745.81;5031677;28;20518;-52
2022/12/05 02:20:10;;;;;;;48.63;31.35;;;;;;;1.97;100.00;101743.19;5029624;28;20060;-50
2022/12/05 02:23:13;;;;;;;53.47;32.17;;;;;;;1.99;100.00;101741.38;5036013;28;20113;-50
2022/12/05 02:25:52;;;;;;;54.05;32.42;;;;;;;1.98;100.00;101735.28;5034510;28;20033;-48
2022/12/05 02:28:39;;;;;;;51.45;32.13;;;;;;;1.97;100.00;101736.19;5031414;28;20041;-50
2022/12/05 02:31:11;;;;;;;50.22;31.75;;;;;;;1.97;100.00;101727.47;5035565;28;20037;-49
2022/12/05 02:33:46;;;;;;;48.20;31.15;;;;;;;1.98;100.00;101732.66;5034585;28;20030;-51
2022/12/05 02:36:17;;;;;;;49.72;31.88;;;;;;;2.00;100.00;101730.88;5034888;28;20040;-49
2022/12/05 02:38:49;;;;;;;54.10;33.33;;;;;;;2.01;100.00;101735.19;5035428;28;20449;-49
2022/12/05 02:41:23;;;;;;;55.35;33.50;;;;;;;2.01;100.00;101731.72;5030436;28;20065;-48
2022/12/05 02:43:51;;;;;;;55.17;33.20;;;;;;;2.01;100.00;101729.94;5025547;28;20121;-51
2022/12/05 02:46:21;;;;;;;50.92;31.98;;;;;;;2.01;100.00;101727.31;5035870;28;20044;-49
2022/12/05 02:48:50;;;;;;;53.15;32.33;;;;;;;2.02;100.00;101728.19;5044508;28;20068;-49
2022/12/05 02:51:19;;;;;;;51.97;32.97;;;;;;;2.01;100.00;101729.94;5035119;28;20025;-49
2022/12/05 02:53:47;;;;;;;51.35;32.60;;;;;;;2.04;100.00;101734.25;5035321;28;20110;-51
2022/12/05 02:56:13;;;;;;;51.08;32.92;;;;;;;2.03;100.00;101735.16;5034422;28;20293;-49
2022/12/05 02:58:46;;;;;;;51.30;31.30;;;;;;;2.03;100.00;101738.66;5034789;28;20037;-50
2022/12/05 03:01:11;;;;;;;49.88;31.63;;;;;;;2.04;100.00;101731.63;5034740;28;20929;-49
2022/12/05 03:03:36;;;;;;;53.83;33.08;;;;;;;2.05;100.00;101741.22;5034819;28;20384;-49
2022/12/05 03:06:20;;;;;;;48.50;31.75;;;;;;;2.08;100.00;101740.28;5034228;28;20026;-50
2022/12/05 03:09:01;;;;;;;54.17;34.03;;;;;;;2.07;100.00;101741.19;5026270;28;20045;-49
2022/12/05 03:11:38;;;;;;;49.53;31.42;;;;;;;2.08;100.00;101742.88;5034919;28;20064;-50
2022/12/05 03:14:10;;;;;;;51.90;33.38;;;;;;;2.08;100.00;101740.28;5034231;28;20365;-49
2022/12/05 03:16:48;;;;;;;53.80;32.83;;;;;;;2.08;100.00;101735.03;5034766;28;20087;-49
2022/12/05 03:19:24;;;;;;;51.03;32.65;;;;;;;2.09;100.00;101736.75;5028433;28;20028;-49
2022/12/05 03:22:02;;;;;;;54.53;32.88;;;;;;;2.09;100.00;101736.75;5032662;28;20193;-48
2022/12/05 03:24:30;;;;;;;53.25;33.00;;;;;;;2.08;100.00;101737.66;5026661;28;20490;-49
2022/12/05 03:27:12;;;;;;;54.38;33.72;;;;;;;2.09;100.00;101731.53;5034190;28;20399;-50
2022/12/05 03:30:03;;;;;;;53.20;33.05;;;;;;;2.10;100.00;101731.47;5034490;28;20025;-50
2022/12/05 03:33:02;;;;;;;51.30;32.13;;;;;;;2.12;100.00;101732.28;5034447;28;20108;-48
2022/12/05 03:35:39;;;;;;;51.35;32.15;;;;;;;2.12;100.00;101734.06;5036068;28;20128;-52
2022/12/05 03:38:24;;;;;;;52.15;32.33;;;;;;;2.13;100.00;101735.75;5028410;28;20025;-49
2022/12/05 03:40:56;;;;;;;52.22;32.10;;;;;;;2.11;100.00;101730.56;5034469;28;20033;-50
2022/12/05 03:43:36;;;;;;;49.78;31.77;;;;;;;2.13;100.00;101728.78;5033873;28;20032;-51
2022/12/05 03:46:14;;;;;;;54.47;32.88;;;;;;;2.13;100.00;101725.28;5034288;28;20045;-50
2022/12/05 03:49:01;;;;;;;55.45;32.20;;;;;;;2.15;100.00;101726.97;5033516;28;20034;-49
2022/12/05 03:51:34;;;;;;;58.08;32.20;;;;;;;2.13;100.00;101727.91;5033879;28;20112;-49
2022/12/05 03:54:38;;;;;;;48.63;30.95;;;;;;;2.15;100.00;101726.97;5034047;28;20036;-49
2022/12/05 03:57:13;;;;;;;52.47;31.58;;;;;;;2.13;100.00;101726.16;5042247;28;20399;-50
2022/12/05 04:00:05;;;;;;;53.95;33.03;;;;;;;2.13;100.00;101728.78;5033325;28;20029;-51
2022/12/05 04:02:54;;;;;;;52.22;32.20;;;;;;;2.15;100.00;101733.94;5029238;28;20049;-49
2022/12/05 04:05:34;;;;;;;49.80;32.22;;;;;;;2.13;100.00;101730.53;5034863;28;20088;-52
2022/12/05 04:08:05;;;;;;;;;;;;;;;2.20;100.00;101729.47;5024180;28;20033;-49
2022/12/05 04:10:47;;;;;;;50.72;30.38;;;;;;;2.15;100.00;101733.94;5033217;28;20312;-48
2022/12/05 04:13:18;;;;;;;49.38;31.50;;;;;;;2.15;100.00;101741.81;5022992;28;20056;-52
2022/12/05 04:18:35;;;;;;;48.88;31.05;;;;;;;2.14;100.00;101735.72;5033808;28;20039;-48
2022/12/05 04:25:31;;;;;;;49.22;31.55;;;;;;;2.14;100.00;101738.34;5033444;28;20048;-48
2022/12/05 04:26:41;;;;;;;53.55;30.80;;;;;;;2.14;100.00;101740.13;5034668;28;20472;-49
2022/12/05 04:29:14;;;;;;;52.15;31.65;;;;;;;2.15;100.00;101741.81;5033668;28;20033;-52
2022/12/05 04:31:48;;;;;;;49.08;30.85;;;;;;;2.14;100.00;101745.34;5033307;28;20498;-49
2022/12/05 04:34:16;;;;;;;49.45;32.22;;;;;;;2.13;100.00;101743.63;5031807;28;20033;-50
2022/12/05 04:36:45;;;;;;;48.22;30.58;;;;;;;2.15;100.00;101741.81;5033570;28;20021;-48
2022/12/05 04:39:16;;;;;;;46.90;31.25;;;;;;;2.16;100.00;101748.78;5032735;28;20049;-49
2022/12/05 04:41:50;;;;;;;48.05;30.23;;;;;;;2.16;100.00;101749.63;5032605;28;20042;-49
2022/12/05 04:44:20;;;;;;;48.60;31.05;;;;;;;2.17;100.00;101748.75;5029753;28;20039;-49
2022/12/05 04:46:48;;;;;;;47.65;29.15;;;;;;;2.18;100.00;101749.59;5033332;28;20467;-48
2022/12/05 04:49:19;;;;;;;48.37;31.97;;;;;;;2.18;100.00;101754.84;5033957;28;20028;-49
2022/12/05 04:51:48;;;;;;;49.88;31.58;;;;;;;2.17;100.00;101751.38;5033407;28;20033;-49
2022/12/05 04:54:20;;;;;;;52.90;32.42;;;;;;;2.19;100.00;101752.19;5033396;28;20021;-48
2022/12/05 04:56:50;;;;;;;51.05;31.50;;;;;;;2.19;100.00;101752.19;5033723;28;20503;-50
2022/12/05 04:59:15;;;;;;;46.67;30.35;;;;;;;2.19;100.00;101749.56;5032083;28;20029;-50
2022/12/05 05:02:05;;;;;;;48.22;30.10;;;;;;;2.22;100.00;101748.63;5033407;28;20022;-49
2022/12/05 05:04:35;;;;;;;51.03;31.23;;;;;;;2.20;100.00;101750.44;5023108;28;20100;-50
2022/12/05 05:07:06;;;;;;;48.35;31.42;;;;;;;2.21;100.00;101744.28;5033379;28;20064;-48
2022/12/05 05:09:31;;;;;;;50.60;31.02;;;;;;;2.22;100.00;101754.72;5033198;28;20527;-48
2022/12/05 05:11:56;;;;;;;49.97;30.50;;;;;;;2.22;100.00;101753.88;5032661;28;20057;-50
2022/12/05 05:14:22;;;;;;;53.83;31.85;;;;;;;2.22;100.00;101751.25;5033311;28;20017;-52
2022/12/05 05:16:47;;;;;;;48.53;30.90;;;;;;;2.21;100.00;101753.03;5033034;28;20057;-51
2022/12/05 05:19:12;;;;;;;48.05;31.05;;;;;;;2.22;100.00;101759.13;5033513;28;20471;-48
2022/12/05 05:21:40;;;;;;;48.58;30.73;;;;;;;2.21;100.00;101762.63;5032507;28;20033;-51
2022/12/05 05:24:06;;;;;;;49.25;31.20;;;;;;;2.22;100.00;101764.34;5026682;28;20490;-49
2022/12/05 05:26:34;;;;;;;47.05;30.20;;;;;;;2.22;100.00;101769.59;5022158;28;20069;-48
2022/12/05 05:29:00;;;;;;;52.38;31.42;;;;;;;2.21;100.00;101768.75;5033384;28;20033;-48
2022/12/05 05:31:25;;;;;;;50.05;29.98;;;;;;;2.22;100.00;101769.59;5032792;28;20037;-49
2022/12/05 05:33:52;;;;;;;52.22;31.70;;;;;;;2.24;100.00;101765.16;5033418;28;20037;-50
2022/12/05 05:36:19;;;;;;;47.03;29.92;;;;;;;2.25;100.00;101766.91;5032576;28;20036;-51
2022/12/05 05:38:47;;;;;;;48.28;30.13;;;;;;;2.25;100.00;101764.28;5033445;28;20410;-50
2022/12/05 05:41:18;;;;;;;48.38;30.67;;;;;;;2.26;100.00;101765.13;5032871;28;20391;-50
2022/12/05 05:43:44;;;;;;;50.42;31.90;;;;;;;2.27;100.00;101759.00;5033778;28;20107;-49
2022/12/05 05:46:10;;;;;;;46.58;28.90;;;;;;;2.26;100.00;101760.72;5035473;28;20033;-51
2022/12/05 05:48:36;;;;;;;44.85;28.30;;;;;;;2.28;100.00;101760.69;5036495;28;20411;-51
2022/12/05 05:51:03;;;;;;;45.45;29.65;;;;;;;2.28;100.00;101763.31;5036226;28;20044;-49
2022/12/05 05:53:29;;;;;;;47.42;29.20;;;;;;;2.30;100.00;101766.75;5036159;28;20032;-50
2022/12/05 05:55:54;;;;;;;46.70;30.38;;;;;;;2.29;100.00;101768.53;5036180;28;20434;-50
2022/12/05 05:58:20;;;;;;;45.10;29.13;;;;;;;2.29;100.00;101765.91;5038736;28;20021;-49
2022/12/05 06:00:45;;;;;;;43.75;27.95;;;;;;;2.30;100.00;101769.38;5035954;28;20025;-52
2022/12/05 06:03:10;;;;;;;42.72;28.58;;;;;;;2.31;100.00;101771.09;5035291;28;20155;-52
2022/12/05 06:05:36;;;;;;;45.80;29.02;;;;;;;2.30;100.00;101775.50;5034631;28;20029;-48
2022/12/05 06:08:02;;;;;;;42.60;28.02;;;;;;;2.31;100.00;101776.34;5033742;28;20025;-51
2022/12/05 06:10:29;;;;;;;47.35;28.80;;;;;;;2.29;100.00;101776.38;5035030;28;20026;-50
2022/12/05 06:12:54;;;;;;;48.20;27.80;;;;;;;2.30;100.00;101775.50;5036111;28;20036;-49
2022/12/05 06:15:20;;;;;;;41.85;27.75;;;;;;;2.30;100.00;101775.50;5034232;28;20022;-49
2022/12/05 06:17:45;;;;;;;46.90;28.95;;;;;;;2.30;100.00;101780.75;5034332;28;20033;-52
2022/12/05 06:20:11;;;;;;;44.70;27.70;;;;;;;2.31;100.00;101778.97;5034678;28;20878;-52
2022/12/05 06:22:36;;;;;;;45.85;29.40;;;;;;;2.33;100.00;101785.03;5034080;28;20088;-50
2022/12/05 06:25:02;;;;;;;46.35;27.45;;;;;;;2.34;100.00;101784.97;5034082;28;20486;-52
2022/12/05 06:27:29;;;;;;;42.78;27.77;;;;;;;2.34;100.00;101777.13;5040196;28;20045;-51
2022/12/05 06:29:54;;;;;;;45.67;28.90;;;;;;;2.35;100.00;101780.63;5035736;28;20029;-52
2022/12/05 06:32:19;;;;;;;45.22;28.40;;;;;;;2.36;100.00;101784.94;5034449;28;20443;-50
2022/12/05 06:34:45;;;;;;;44.08;28.85;;;;;;;2.37;100.00;101779.66;5033680;28;20095;-50
2022/12/05 06:37:11;;;;;;;46.13;29.00;;;;;;;2.36;100.00;101783.19;5034127;28;20502;-52
2022/12/05 06:39:37;;;;;;;44.38;29.02;;;;;;;2.38;100.00;101780.50;5034048;28;20028;-49
2022/12/05 06:42:02;;;;;;;45.22;28.20;;;;;;;2.37;100.00;101790.16;5034459;28;20034;-51
2022/12/05 06:44:28;;;;;;;46.15;27.30;;;;;;;2.38;100.00;101789.25;5033369;28;20399;-52
2022/12/05 06:46:54;;;;;;;40.78;27.65;;;;;;;2.39;100.00;101782.25;5029023;28;20379;-50
2022/12/05 06:49:20;;;;;;;41.85;27.20;;;;;;;2.40;100.00;101783.97;5032115;28;20033;-50
2022/12/05 06:51:45;;;;;;;43.70;26.90;;;;;;;2.41;100.00;101785.69;5033757;28;20031;-50
2022/12/05 06:54:12;;;;;;;44.53;28.98;;;;;;;2.44;100.00;101784.75;5032795;28;20021;-53
2022/12/05 06:56:37;;;;;;;43.20;28.23;;;;;;;2.43;100.00;101789.09;5037385;28;20120;-50
2022/12/05 06:59:03;;;;;;;42.40;27.63;;;;;;;2.44;100.00;101788.22;5031669;28;20539;-48
2022/12/05 07:01:37;;;;;;;41.85;27.05;;;;;;;2.44;100.00;101793.47;5032070;28;20025;-53
2022/12/05 07:04:09;;;;;;;41.30;27.20;;;;;;;2.45;100.00;101794.31;5033065;28;20030;-53
2022/12/05 07:06:34;;;;;;;42.47;26.27;;;;;;;2.46;100.00;101801.28;5034385;28;20114;-52
2022/12/05 07:09:00;;;;;;;38.35;25.48;;;;;;;2.47;100.00;101808.25;5021920;28;20053;-52
2022/12/05 07:11:25;;;;;;;39.63;26.40;;;;;;;2.48;100.00;101802.97;5033632;28;20033;-50
2022/12/05 07:13:51;;;;;;;41.20;25.83;;;;;;;2.47;100.00;101797.78;5026296;28;20299;-50
2022/12/05 07:16:16;;;;;;;39.22;26.48;;;;;;;2.48;100.00;101809.97;5031609;28;20446;-50
2022/12/05 07:18:41;;;;;;;38.17;25.77;;;;;;;2.48;100.00;101809.97;5030962;28;20018;-50
2022/12/05 07:21:11;;;;;;;38.83;25.83;;;;;;;2.47;100.00;101814.38;5032215;28;20041;-51
2022/12/05 07:23:36;;;;;;;40.72;25.17;;;;;;;2.47;100.00;101814.38;5025706;28;20398;-50
2022/12/05 07:26:07;;;;;;;39.50;25.55;;;;;;;2.48;100.00;101818.72;5032136;28;20049;-52
2022/12/05 07:28:32;;;;;;;37.53;24.98;;;;;;;2.51;100.00;101833.50;5026270;28;20033;-51
2022/12/05 07:31:04;;;;;;;39.95;26.15;;;;;;;2.51;100.00;101834.34;5028319;28;20045;-50
2022/12/05 07:33:29;;;;;;;40.95;25.35;;;;;;;2.54;100.00;101831.63;5030158;28;20376;-51
2022/12/05 07:36:02;;;;;;;35.35;25.05;;;;;;;2.53;100.00;101842.16;5031583;28;20124;-51
2022/12/05 07:38:28;;;;;;;36.40;24.17;;;;;;;2.53;100.00;101837.81;5026254;28;20497;-50
2022/12/05 07:40:54;;;;;;;34.45;22.75;;;;;;;2.54;100.00;101838.66;5032474;28;20037;-52
2022/12/05 07:43:19;;;;;;;36.75;24.85;;;;;;;2.52;100.00;101838.69;5031089;28;20071;-52
2022/12/05 07:45:44;;;;;;;35.83;22.98;;;;;;;2.53;100.00;101842.16;5030258;28;20049;-53
2022/12/05 07:48:10;;;;;;;37.55;25.00;;;;;;;2.52;100.00;101833.44;5029558;28;20152;-50
2022/12/05 07:50:35;;;;;;;36.97;24.30;;;;;;;2.53;100.00;101836.91;5029759;28;20049;-50
2022/12/05 07:53:01;;;;;;;35.63;24.05;;;;;;;2.54;100.00;101836.88;5029575;28;20026;-51
2022/12/05 07:55:26;;;;;;;33.28;23.50;;;;;;;2.54;100.00;101839.50;5031791;28;20106;-51
2022/12/05 07:57:51;;;;;;;34.55;23.67;;;;;;;2.56;100.00;101845.56;5027808;28;20037;-49
2022/12/05 08:00:17;;;;;;;32.83;22.98;;;;;;;2.59;100.00;101848.09;5030314;28;20091;-51
2022/12/05 08:02:42;;;;;;;34.05;23.60;;;;;;;2.58;100.00;101846.41;5025851;28;20048;-48
2022/12/05 08:05:08;;;;;;;35.20;25.13;;;;;;;2.59;100.00;101847.25;5027529;28;20491;-51
2022/12/05 08:07:33;;;;;;;39.72;24.05;;;;;;;2.59;100.00;101840.25;5027892;28;20167;-50
2022/12/05 08:09:58;;;;;;;33.63;23.63;;;;;;;2.61;100.00;101841.97;5029543;28;20041;-51
2022/12/05 08:12:24;;;;;;;38.03;23.73;;;;;;;2.62;100.00;101847.19;5028878;28;20044;-51
2022/12/05 08:14:49;;;;;;;37.88;24.67;;;;;;;2.64;100.00;101863.72;5027996;28;20036;-50
2022/12/05 08:17:14;;;;;;;34.80;23.73;;;;;;;2.65;100.00;101862.84;5028744;28;20048;-50
2022/12/05 08:19:39;;;;;;;34.60;24.02;;;;;;;2.66;100.00;101861.91;5028534;28;20546;-50
2022/12/05 08:22:05;;;;;;;34.67;23.98;;;;;;;2.66;100.00;101867.16;5027058;28;20049;-50
2022/12/05 08:24:30;;;;;;;35.03;23.83;;;;;;;2.67;100.00;101873.28;5025897;28;20391;-50
2022/12/05 08:26:56;;;;;;;33.53;23.40;;;;;;;2.68;100.00;101875.00;5025942;28;20124;-50
2022/12/05 08:29:21;;;;;;;35.83;23.33;;;;;;;2.68;100.00;101875.88;5028235;28;20025;-50
2022/12/05 08:31:49;;;;;;;36.35;24.38;;;;;;;2.69;100.00;101871.47;5030827;28;20135;-50
2022/12/05 08:34:16;;;;;;;35.55;24.63;;;;;;;2.71;100.00;101877.53;5031203;28;20030;-50
2022/12/05 08:36:42;;;;;;;35.90;24.23;;;;;;;2.71;100.00;101878.38;5030577;28;20049;-51
2022/12/05 08:39:10;;;;;;;35.92;24.70;;;;;;;2.72;100.00;101880.13;5029002;28;20475;-51
2022/12/05 08:41:36;;;;;;;36.22;25.08;;;;;;;2.73;100.00;101881.84;5030341;28;20042;-51
2022/12/05 08:44:04;;;;;;;41.03;25.13;;;;;;;2.73;100.00;101880.97;5025311;28;20042;-50
2022/12/05 08:46:35;;;;;;;35.67;23.95;;;;;;;2.74;100.00;101880.09;5031545;28;20042;-51
2022/12/05 08:49:04;;;;;;;38.35;24.73;;;;;;;2.75;100.00;101874.78;5029298;28;20368;-54
2022/12/05 08:51:30;;;;;;;;;;;;;;;2.83;100.00;101868.47;5030546;28;20044;-50
2022/12/05 08:53:55;;;;;;;36.15;23.60;;;;;;;2.78;100.00;101879.09;5027451;28;20019;-53
2022/12/05 08:56:21;;;;;;;35.72;23.75;;;;;;;2.76;100.00;101881.78;5033413;28;20064;-50
2022/12/05 08:58:46;;;;;;;37.78;24.13;;;;;;;2.75;100.00;101885.28;5026970;28;20472;-54
2022/12/05 09:01:14;;;;;;;38.17;24.95;;;;;;;2.75;100.00;101887.91;5029656;28;20024;-53
2022/12/05 09:03:40;;;;;;;35.50;24.42;;;;;;;2.76;100.00;101888.75;5030618;28;20099;-52
2022/12/05 09:06:21;;;;;;;37.90;24.92;;;;;;;2.78;100.00;101889.56;5034791;28;20127;-50
2022/12/05 09:08:47;;;;;;;37.63;23.80;;;;;;;2.78;100.00;101895.72;5029474;28;20026;-52
2022/12/05 09:11:15;;;;;;;39.35;24.85;;;;;;;2.78;100.00;101895.72;5031330;28;20075;-51
2022/12/05 09:13:41;;;;;;;35.57;24.40;;;;;;;2.81;100.00;101893.91;5029881;28;20037;-50
2022/12/05 09:16:14;;;;;;;39.67;26.13;;;;;;;2.82;100.00;101900.88;5030336;28;20022;-51
2022/12/05 09:18:40;;;;;;;37.85;24.65;;;;;;;2.83;100.00;101902.56;5039820;28;20033;-51
2022/12/05 09:21:14;;;;;;;35.78;25.02;;;;;;;2.83;100.00;101899.94;5034578;28;20029;-53
2022/12/05 09:23:40;;;;;;;38.08;24.55;;;;;;;2.83;100.00;101903.47;5035784;28;20036;-51
2022/12/05 09:26:06;;;;;;;37.08;24.73;;;;;;;2.83;100.00;101905.19;5034932;28;20021;-51
2022/12/05 09:28:33;;;;;;;35.97;24.20;;;;;;;2.84;100.00;101904.31;5034902;28;20065;-52
2022/12/05 09:31:04;;;;;;;35.72;23.10;;;;;;;2.84;100.00;101912.19;5032055;28;20030;-52
2022/12/05 09:33:32;;;;;;;35.10;23.88;;;;;;;2.84;100.00;101910.41;5034273;28;20364;-51
2022/12/05 09:35:58;;;;;;;38.05;24.15;;;;;;;2.86;100.00;101915.63;5034824;28;20022;-53
2022/12/05 09:38:23;;;;;;;35.28;23.88;;;;;;;2.87;100.00;101919.97;5033597;28;20021;-51
2022/12/05 09:44:45;;;;;;;36.30;24.05;;;;;;;2.93;100.00;101922.41;5037735;28;20060;-53
2022/12/05 09:47:48;;;;;;;36.30;23.20;;;;;;;2.95;100.00;101921.47;5035379;28;20014;-53
2022/12/05 09:50:21;;;;;;;32.97;22.33;;;;;;;2.94;100.00;101921.53;5009469;28;23753;-50
2022/12/05 09:53:01;;;;;;;34.35;23.67;;;;;;;2.95;100.00;101920.63;5030233;28;20022;-54
2022/12/05 09:55:35;;;;;;;34.70;22.50;;;;;;;2.98;100.00;101928.38;5033325;28;20021;-53
2022/12/05 09:58:02;;;;;;;32.30;22.80;;;;;;;2.97;100.00;101924.06;5033040;28;20085;-55
2022/12/05 10:00:29;;;;;;;32.25;22.08;;;;;;;2.97;100.00;101927.53;5033805;28;20061;-55
2022/12/05 10:03:06;;;;;;;32.67;21.73;;;;;;;2.97;100.00;101922.28;5034972;28;20025;-56
2022/12/05 10:05:50;;;;;;;31.67;20.67;;;;;;;2.98;100.00;101920.53;5034194;28;20026;-57
2022/12/05 10:08:28;;;;;;;29.80;19.08;;;;;;;2.96;100.00;101925.84;5035379;28;20029;-54
2022/12/05 10:11:00;;;;;;;25.25;17.55;;;;;;;2.95;100.00;101925.88;5034488;28;20780;-56
2022/12/05 10:13:42;;;;;;;25.45;18.48;;;;;;;2.95;100.00;101931.13;5040343;28;20025;-55
2022/12/05 10:16:17;;;;;;;28.10;18.67;;;;;;;2.95;100.00;101928.50;5032590;28;20038;-56
2022/12/05 10:18:50;;;;;;;26.02;18.25;;;;;;;2.93;100.00;101927.66;5031145;28;20041;-54
2022/12/05 10:21:30;;;;;;;27.30;18.42;;;;;;;2.93;100.00;101923.28;5023018;28;20026;-57
2022/12/05 10:24:04;;;;;;;25.02;18.42;;;;;;;2.95;100.00;101923.25;5020426;28;20464;-56
2022/12/05 10:26:43;;;;;;;23.77;17.88;;;;;;;2.97;100.00;101922.28;5014815;28;20526;-56
2022/12/05 10:29:36;;;;;;;26.25;17.85;;;;;;;2.98;100.00;101917.91;5024828;28;20033;-55
2022/12/05 10:32:10;;;;;;;23.50;16.85;;;;;;;3.00;100.00;101928.34;5032752;28;20053;-57
2022/12/05 10:34:44;;;;;;;28.58;19.70;;;;;;;3.00;100.00;101926.63;5025831;28;20033;-57
2022/12/05 10:37:17;;;;;;;23.65;17.23;;;;;;;3.02;100.00;101923.94;5015105;28;20026;-55
2022/12/05 10:39:42;;;;;;;22.02;16.15;;;;;;;3.03;100.00;101923.91;5017230;28;20056;-56
2022/12/05 10:42:16;;;;;;;21.85;15.20;;;;;;;3.04;100.00;101924.75;5018367;28;20022;-55
2022/12/05 10:44:43;;;;;;;21.50;16.25;;;;;;;3.04;100.00;101925.59;5020024;28;20025;-54
2022/12/05 10:47:09;;;;;;;21.15;16.30;;;;;;;3.06;100.00;101920.31;5026233;28;20076;-54
2022/12/05 10:49:37;;;;;;;21.83;16.25;;;;;;;3.09;100.00;101928.09;5032742;28;20152;-53
2022/12/05 10:52:03;;;;;;;22.80;15.48;;;;;;;3.10;100.00;101922.81;5021134;28;20063;-53
2022/12/05 10:54:35;;;;;;;22.35;16.05;;;;;;;3.10;100.00;101925.44;5031858;28;20021;-54
2022/12/05 10:57:20;;;;;;;21.13;15.82;;;;;;;3.15;100.00;101926.19;5032228;28;20375;-53
2022/12/05 10:59:46;;;;;;;20.63;15.10;;;;;;;3.15;100.00;101927.94;5023760;28;20140;-55
2022/12/05 11:02:32;;;;;;;20.65;15.55;;;;;;;3.21;100.00;101930.38;5031614;28;20031;-53
2022/12/05 11:04:57;;;;;;;21.00;14.48;;;;;;;3.18;100.00;101929.59;5032410;28;20499;-55
2022/12/05 11:07:29;;;;;;;19.27;14.25;;;;;;;3.20;100.00;101925.16;5030921;28;20049;-56
2022/12/05 11:09:54;;;;;;;21.20;14.43;;;;;;;3.19;100.00;101921.69;5025911;28;20025;-55
2022/12/05 11:12:27;;;;;;;19.05;14.73;;;;;;;3.21;100.00;101919.88;5027819;28;20253;-55
2022/12/05 11:15:24;;;;;;;21.75;15.45;;;;;;;3.23;100.00;101912.84;5028904;28;20079;-54
2022/12/05 11:17:51;;;;;;;18.42;13.25;;;;;;;3.24;100.00;101922.41;5025796;28;20052;-56
2022/12/05 11:20:16;;;;;;;19.27;14.35;;;;;;;3.27;100.00;101914.47;5030304;28;20025;-52
2022/12/05 11:22:43;;;;;;;20.13;13.97;;;;;;;3.30;100.00;101913.53;5031596;28;20022;-56
2022/12/05 11:25:27;;;;;;;18.58;14.68;;;;;;;3.34;100.00;101909.88;5031905;28;20291;-55
2022/12/05 11:27:54;;;;;;;18.42;14.10;;;;;;;3.34;100.00;101912.50;5028677;28;20152;-53
2022/12/05 11:30:23;;;;;;;18.70;13.18;;;;;;;3.34;100.00;101913.38;5031438;28;20468;-53
2022/12/05 11:32:49;;;;;;;14.35;11.60;;;;;;;3.36;100.00;101909.84;5030572;28;20021;-53